createdAt,value
2022-12-23T00:01:06.074Z,14.35
2022-12-23T00:03:33.244Z,12.68
2022-12-23T00:06:00.413Z,13.68
2022-12-23T00:08:27.834Z,14.75
2022-12-23T00:10:56.585Z,18.42
2022-12-23T00:13:41.722Z,15.23
2022-12-23T00:16:13.963Z,14.95
2022-12-23T00:18:41.064Z,17.23
2022-12-23T00:21:10.653Z,20.10
2022-12-23T00:23:39.645Z,16.33
2022-12-23T00:26:06.840Z,17.38
2022-12-23T00:28:33.578Z,12.90
2022-12-23T00:31:02.532Z,17.73
2022-12-23T00:33:37.525Z,18.63
2022-12-23T00:36:25.530Z,14.70
2022-12-23T00:39:10.866Z,18.45
2022-12-23T00:41:56.040Z,13.18
2022-12-23T00:44:23.057Z,16.02
2022-12-23T00:46:49.605Z,16.05
2022-12-23T00:49:36.605Z,16.35
2022-12-23T00:52:04.680Z,18.52
2022-12-23T00:54:31.975Z,12.50
2022-12-23T00:56:59.092Z,14.50
2022-12-23T00:59:25.682Z,14.98
2022-12-23T01:02:10.819Z,16.13
2022-12-23T01:04:56.353Z,16.40
2022-12-23T01:07:23.545Z,14.98
2022-12-23T01:09:50.264Z,13.02
2022-12-23T01:12:16.773Z,12.93
2022-12-23T01:14:43.251Z,15.82
2022-12-23T01:17:09.835Z,16.45
2022-12-23T01:19:36.491Z,12.55
2022-12-23T01:22:03.111Z,14.57
2022-12-23T01:24:30.847Z,14.90
2022-12-23T01:26:57.429Z,23.13
2022-12-23T01:29:24.282Z,17.33
2022-12-23T01:31:50.783Z,20.15
2022-12-23T01:34:17.821Z,18.30
2022-12-23T01:36:44.294Z,17.33
2022-12-23T01:39:10.796Z,15.80
2022-12-23T01:41:55.942Z,18.25
2022-12-23T01:44:50.543Z,15.82
2022-12-23T01:47:41.599Z,15.00
2022-12-23T01:50:25.373Z,16.67
2022-12-23T01:53:04.612Z,16.23
2022-12-23T01:55:37.642Z,18.08
2022-12-23T01:58:28.326Z,18.83
2022-12-23T02:01:15.041Z,19.33
2022-12-23T02:03:45.327Z,22.70
2022-12-23T02:06:43.173Z,17.63
2022-12-23T02:09:17.119Z,19.42
2022-12-23T02:12:03.859Z,20.08
2022-12-23T02:14:56.413Z,17.42
2022-12-23T02:17:43.938Z,18.63
2022-12-23T02:20:19.365Z,19.63
2022-12-23T02:23:07.902Z,21.83
2022-12-23T02:25:49.513Z,20.85
2022-12-23T02:28:26.088Z,17.92
2022-12-23T02:31:01.334Z,21.45
2022-12-23T02:33:43.114Z,20.42
2022-12-23T02:36:23.455Z,17.90
2022-12-23T02:39:07.581Z,18.75
2022-12-23T02:42:00.373Z,18.15
2022-12-23T02:44:48.271Z,15.90
2022-12-23T02:47:20.268Z,18.98
2022-12-23T02:49:56.175Z,20.77
2022-12-23T02:52:26.508Z,21.02
2022-12-23T02:54:57.514Z,26.80
2022-12-23T02:57:28.676Z,18.95
2022-12-23T02:59:56.799Z,20.02
2022-12-23T03:02:23.315Z,18.65
2022-12-23T03:04:49.900Z,26.17
2022-12-23T03:07:24.154Z,25.23
2022-12-23T03:10:18.651Z,24.98
2022-12-23T03:12:55.167Z,26.33
2022-12-23T03:15:33.596Z,27.33
2022-12-23T03:18:12.190Z,28.40
2022-12-23T03:20:51.913Z,25.50
2022-12-23T03:23:33.973Z,25.02
2022-12-23T03:26:09.295Z,22.33
2022-12-23T03:28:44.937Z,22.05
2022-12-23T03:31:14.076Z,23.63
2022-12-23T03:33:42.767Z,21.73
2022-12-23T03:36:24.630Z,25.73
2022-12-23T03:38:52.124Z,20.65
2022-12-23T03:41:23.837Z,21.70
2022-12-23T03:43:57.651Z,19.67
2022-12-23T03:46:31.094Z,20.02
2022-12-23T03:49:01.115Z,25.05
2022-12-23T03:51:31.434Z,20.67
2022-12-23T03:54:01.935Z,21.00
2022-12-23T03:56:32.268Z,23.58
2022-12-23T03:59:01.646Z,21.67
2022-12-23T04:02:02.489Z,20.90
2022-12-23T04:04:46.982Z,20.63
2022-12-23T04:07:17.994Z,25.52
2022-12-23T04:12:11.716Z,21.67
2022-12-23T04:14:38.393Z,23.33
2022-12-23T04:17:04.871Z,24.95
2022-12-23T04:19:31.339Z,28.67
2022-12-23T04:21:57.898Z,26.27
2022-12-23T04:24:24.358Z,30.52
2022-12-23T04:26:50.838Z,29.23
2022-12-23T04:29:17.265Z,28.80
2022-12-23T04:31:43.761Z,29.42
2022-12-23T04:34:10.248Z,23.27
2022-12-23T04:36:36.658Z,24.65
2022-12-23T04:39:03.135Z,22.38
2022-12-23T04:41:29.760Z,24.58
2022-12-23T04:43:56.232Z,19.73
2022-12-23T04:46:22.711Z,18.08
2022-12-23T04:48:49.195Z,15.68
2022-12-23T04:51:15.737Z,17.67
2022-12-23T04:53:42.202Z,20.10
2022-12-23T04:56:08.667Z,23.77
2022-12-23T04:58:35.290Z,18.60
2022-12-23T05:01:10.245Z,22.38
2022-12-23T05:03:55.438Z,18.40
2022-12-23T05:06:21.832Z,22.30
2022-12-23T05:08:48.276Z,18.30
2022-12-23T05:11:14.733Z,14.88
2022-12-23T05:13:41.198Z,17.42
2022-12-23T05:16:07.882Z,19.38
2022-12-23T05:18:34.449Z,13.20
2022-12-23T05:21:00.889Z,14.65
2022-12-23T05:23:27.393Z,17.83
2022-12-23T05:25:54.374Z,14.48
2022-12-23T05:28:22.069Z,17.75
2022-12-23T05:30:48.872Z,16.05
2022-12-23T05:33:15.450Z,18.35
2022-12-23T05:35:41.926Z,20.30
2022-12-23T05:38:08.403Z,22.10
2022-12-23T05:40:34.927Z,18.25
2022-12-23T05:43:01.909Z,17.75
2022-12-23T05:45:28.379Z,20.27
2022-12-23T05:47:54.887Z,19.67
2022-12-23T05:50:21.381Z,15.98
2022-12-23T05:52:47.842Z,16.90
2022-12-23T05:55:14.374Z,16.38
2022-12-23T05:57:40.911Z,15.20
2022-12-23T06:00:09.691Z,14.75
2022-12-23T06:02:36.405Z,14.60
2022-12-23T06:05:03.217Z,13.68
2022-12-23T06:07:29.648Z,14.15
2022-12-23T06:09:56.119Z,16.10
2022-12-23T06:12:22.597Z,16.25
2022-12-23T06:14:49.089Z,16.83
2022-12-23T06:17:15.604Z,18.55
2022-12-23T06:19:42.126Z,21.48
2022-12-23T06:22:08.568Z,22.92
2022-12-23T06:24:35.046Z,23.80
2022-12-23T06:27:01.620Z,19.00
2022-12-23T06:29:31.267Z,22.48
2022-12-23T06:31:57.974Z,22.98
2022-12-23T06:34:24.418Z,24.65
2022-12-23T06:36:50.834Z,28.58
2022-12-23T06:39:17.333Z,21.83
2022-12-23T06:41:43.777Z,23.33
2022-12-23T06:44:10.241Z,20.38
2022-12-23T06:46:36.761Z,24.35
2022-12-23T06:49:09.063Z,32.50
2022-12-23T06:51:39.216Z,28.77
2022-12-23T06:54:05.712Z,28.80
2022-12-23T06:56:33.387Z,23.52
2022-12-23T06:58:59.864Z,22.20
2022-12-23T07:01:26.482Z,28.80
2022-12-23T07:03:53.176Z,21.30
2022-12-23T07:06:19.651Z,22.05
2022-12-23T07:08:46.181Z,21.25
2022-12-23T07:11:12.654Z,25.02
2022-12-23T07:13:39.161Z,21.98
2022-12-23T07:16:08.196Z,23.98
2022-12-23T07:18:35.286Z,27.90
2022-12-23T07:21:02.484Z,32.10
2022-12-23T07:23:29.060Z,36.55
2022-12-23T07:25:55.840Z,33.55
2022-12-23T07:28:25.315Z,31.38
2022-12-23T07:30:51.803Z,28.42
2022-12-23T07:33:18.283Z,33.03
2022-12-23T07:35:44.823Z,32.78
2022-12-23T07:38:11.283Z,30.80
2022-12-23T07:40:37.693Z,33.03
2022-12-23T07:43:04.141Z,28.63
2022-12-23T07:45:30.824Z,31.65
2022-12-23T07:47:59.538Z,35.35
2022-12-23T07:50:26.199Z,27.60
2022-12-23T07:52:53.665Z,29.95
2022-12-23T07:55:20.515Z,32.53
2022-12-23T07:57:51.404Z,23.77
2022-12-23T08:00:19.140Z,24.25
2022-12-23T08:02:46.108Z,28.80
2022-12-23T08:05:13.513Z,25.30
2022-12-23T08:07:40.595Z,29.45
2022-12-23T08:10:07.741Z,30.58
2022-12-23T08:12:34.708Z,31.45
2022-12-23T08:15:01.129Z,27.52
2022-12-23T08:17:29.193Z,30.65
2022-12-23T08:19:56.071Z,25.02
2022-12-23T08:22:23.084Z,30.13
2022-12-23T08:24:49.865Z,28.40
2022-12-23T08:27:16.456Z,28.65
2022-12-23T08:29:42.966Z,28.58
2022-12-23T08:32:09.484Z,36.33
2022-12-23T08:34:36.289Z,28.35
2022-12-23T08:37:02.852Z,30.80
2022-12-23T08:39:29.324Z,33.78
2022-12-23T08:41:56.128Z,31.15
2022-12-23T08:44:22.669Z,28.42
2022-12-23T08:46:49.376Z,27.05
2022-12-23T08:49:15.906Z,24.50
2022-12-23T08:51:42.633Z,24.73
2022-12-23T08:54:10.248Z,22.23
2022-12-23T08:56:40.923Z,22.20
2022-12-23T08:59:18.243Z,25.77
2022-12-23T09:01:45.904Z,19.85
2022-12-23T09:04:12.429Z,21.13
2022-12-23T09:06:41.151Z,28.23
2022-12-23T09:09:09.421Z,22.42
2022-12-23T09:11:36.554Z,22.33
2022-12-23T09:14:03.788Z,23.08
2022-12-23T09:16:30.903Z,24.90
2022-12-23T09:18:57.561Z,29.30
2022-12-23T09:21:24.492Z,20.52
2022-12-23T09:23:51.466Z,22.83
2022-12-23T09:26:29.865Z,21.55
2022-12-23T09:28:56.936Z,18.08
2022-12-23T09:31:23.982Z,19.35
2022-12-23T09:33:52.480Z,21.85
2022-12-23T09:36:19.904Z,23.35
2022-12-23T09:38:46.384Z,20.33
2022-12-23T09:41:47.509Z,18.80
2022-12-23T09:44:37.861Z,19.90
2022-12-23T09:47:15.693Z,19.65
2022-12-23T09:49:59.453Z,19.02
2022-12-23T09:52:33.988Z,22.88
2022-12-23T09:55:00.887Z,21.42
2022-12-23T09:57:40.586Z,19.52
2022-12-23T10:00:14.546Z,29.52
2022-12-23T10:03:00.079Z,22.15
2022-12-23T10:06:04.361Z,30.08
2022-12-23T10:08:34.669Z,18.10
2022-12-23T10:11:14.480Z,23.40
2022-12-23T10:13:45.397Z,24.77
2022-12-23T10:18:51.553Z,21.70
2022-12-23T10:21:24.128Z,25.13
2022-12-23T10:23:52.929Z,24.95
2022-12-23T10:26:22.992Z,34.42
2022-12-23T10:28:52.682Z,24.25
2022-12-23T10:31:40.402Z,19.95
2022-12-23T10:34:18.539Z,17.80
2022-12-23T10:37:20.712Z,22.33
2022-12-23T10:39:51.691Z,20.58
2022-12-23T10:42:23.022Z,22.05
2022-12-23T10:44:49.499Z,20.15
2022-12-23T10:47:29.300Z,21.45
2022-12-23T10:50:28.527Z,18.38
2022-12-23T10:52:56.832Z,18.45
2022-12-23T10:55:33.171Z,23.60
2022-12-23T10:58:09.411Z,15.63
2022-12-23T11:00:38.176Z,17.13
2022-12-23T11:03:15.623Z,19.30
2022-12-23T11:05:42.836Z,16.25
2022-12-23T11:08:09.708Z,16.50
2022-12-23T11:10:36.277Z,23.67
2022-12-23T11:13:03.148Z,19.45
2022-12-23T11:15:40.276Z,14.07
2022-12-23T11:18:10.874Z,16.38
2022-12-23T11:20:38.552Z,15.40
2022-12-23T11:23:06.502Z,17.63
2022-12-23T11:25:43.043Z,16.65
2022-12-23T11:28:18.231Z,15.07
2022-12-23T11:30:55.214Z,16.55
2022-12-23T11:33:30.801Z,16.17
2022-12-23T11:36:12.297Z,14.40
2022-12-23T11:38:49.258Z,18.83
2022-12-23T11:41:23.792Z,14.73
2022-12-23T11:43:56.964Z,15.93
2022-12-23T11:46:29.467Z,13.38
2022-12-23T11:49:06.006Z,15.38
2022-12-23T11:51:32.549Z,14.65
2022-12-23T11:54:00.824Z,12.98
2022-12-23T11:56:29.705Z,13.60
2022-12-23T11:59:21.650Z,13.23
2022-12-23T12:01:48.907Z,14.98
2022-12-23T12:04:21.445Z,13.15
2022-12-23T12:06:55.819Z,14.40
2022-12-23T12:09:23.811Z,14.10
2022-12-23T12:11:57.506Z,13.98
2022-12-23T12:14:34.217Z,13.63
2022-12-23T12:17:18.387Z,12.70
2022-12-23T12:20:02.254Z,10.95
2022-12-23T12:22:48.671Z,11.65
2022-12-23T12:25:20.857Z,13.27
2022-12-23T12:28:10.359Z,13.18
2022-12-23T12:30:41.748Z,12.18
2022-12-23T12:33:19.592Z,11.57
2022-12-23T12:36:07.668Z,10.90
2022-12-23T12:38:36.559Z,11.35
2022-12-23T12:41:28.150Z,13.02
2022-12-23T12:44:00.291Z,15.18
2022-12-23T12:46:49.763Z,11.55
2022-12-23T12:49:32.544Z,11.68
2022-12-23T12:52:07.696Z,10.07
2022-12-23T12:54:45.830Z,10.88
2022-12-23T12:57:17.104Z,10.00
2022-12-23T12:59:44.124Z,13.90
2022-12-23T13:02:23.140Z,13.80
2022-12-23T13:05:14.223Z,10.07
2022-12-23T13:07:59.458Z,11.95
2022-12-23T13:10:31.612Z,11.85
2022-12-23T13:13:03.859Z,10.00
2022-12-23T13:15:38.837Z,10.45
2022-12-23T13:18:31.640Z,15.07
2022-12-23T13:21:35.891Z,11.80
2022-12-23T13:24:08.391Z,9.23
2022-12-23T13:26:46.763Z,9.75
2022-12-23T13:29:41.213Z,9.43
2022-12-23T13:32:28.749Z,12.07
2022-12-23T13:35:03.951Z,7.75
2022-12-23T13:37:44.502Z,9.18
2022-12-23T13:40:29.390Z,6.85
2022-12-23T13:43:03.823Z,6.68
2022-12-23T13:45:33.949Z,11.00
2022-12-23T13:48:22.212Z,10.45
2022-12-23T13:51:04.418Z,8.93
2022-12-23T13:53:39.909Z,7.47
2022-12-23T13:56:32.698Z,12.48
2022-12-23T13:58:59.594Z,9.38
2022-12-23T14:01:44.009Z,8.88
2022-12-23T14:04:29.118Z,10.20
2022-12-23T14:06:58.184Z,11.60
2022-12-23T14:09:34.362Z,6.70
2022-12-23T14:12:20.878Z,6.55
2022-12-23T14:15:19.917Z,10.88
2022-12-23T14:18:02.720Z,7.38
2022-12-23T14:21:02.239Z,6.80
2022-12-23T14:24:14.680Z,8.70
2022-12-23T14:27:22.710Z,5.90
2022-12-23T14:30:35.824Z,5.93
2022-12-23T14:33:20.751Z,5.32
2022-12-23T14:35:47.293Z,6.18
2022-12-23T14:38:14.747Z,5.13
2022-12-23T14:41:18.922Z,12.73
2022-12-23T14:43:45.384Z,6.65
2022-12-23T14:46:37.342Z,9.00
2022-12-23T14:51:53.516Z,4.80
2022-12-23T14:54:37.803Z,6.72
2022-12-23T14:57:10.282Z,9.68
2022-12-23T15:00:00.549Z,7.40
2022-12-23T15:02:34.024Z,5.55
2022-12-23T15:05:01.315Z,7.00
2022-12-23T15:07:31.833Z,5.30
2022-12-23T15:10:01.428Z,4.03
2022-12-23T15:12:38.220Z,4.15
2022-12-23T15:15:15.981Z,4.53
2022-12-23T15:17:42.631Z,4.85
2022-12-23T15:20:25.424Z,6.75
2022-12-23T15:22:54.843Z,5.47
2022-12-23T15:25:27.244Z,5.93
2022-12-23T15:28:01.234Z,5.88
2022-12-23T15:30:35.465Z,5.57
2022-12-23T15:33:11.880Z,4.28
2022-12-23T15:35:48.386Z,4.82
2022-12-23T15:38:16.267Z,5.07
2022-12-23T15:40:43.157Z,5.60
2022-12-23T15:43:25.955Z,5.00
2022-12-23T15:45:52.831Z,4.03
2022-12-23T15:48:30.351Z,4.90
2022-12-23T15:51:05.258Z,6.80
2022-12-23T15:53:33.957Z,5.32
2022-12-23T15:56:05.073Z,4.88
2022-12-23T15:58:33.112Z,5.22
2022-12-23T16:01:00.421Z,6.10
2022-12-23T16:03:33.251Z,5.85
2022-12-23T16:06:10.447Z,5.65
2022-12-23T16:08:38.139Z,6.40
2022-12-23T16:11:15.641Z,7.25
2022-12-23T16:13:58.430Z,6.35
2022-12-23T16:16:42.300Z,9.50
2022-12-23T16:19:41.171Z,6.75
2022-12-23T16:22:20.767Z,7.43
2022-12-23T16:24:57.415Z,7.55
2022-12-23T16:27:36.042Z,7.20
2022-12-23T16:30:16.692Z,7.88
2022-12-23T16:32:50.528Z,9.73
2022-12-23T16:35:30.795Z,8.98
2022-12-23T16:38:00.157Z,9.93
2022-12-23T16:40:26.718Z,10.05
2022-12-23T16:42:53.417Z,11.10
2022-12-23T16:45:20.038Z,10.77
2022-12-23T16:47:46.620Z,12.50
2022-12-23T16:50:14.870Z,14.02
2022-12-23T16:52:41.498Z,15.32
2022-12-23T16:55:15.931Z,16.27
2022-12-23T16:57:43.005Z,15.82
2022-12-23T17:00:13.335Z,16.80
2022-12-23T17:02:39.841Z,17.58
2022-12-23T17:05:07.813Z,26.10
2022-12-23T17:07:35.869Z,19.60
2022-12-23T17:10:07.453Z,17.73
2022-12-23T17:12:33.984Z,18.70
2022-12-23T17:15:00.548Z,18.80
2022-12-23T17:17:27.037Z,10.43
2022-12-23T17:19:56.080Z,16.13
2022-12-23T17:22:22.825Z,12.82
2022-12-23T17:24:49.376Z,13.07
2022-12-23T17:27:18.263Z,12.38
2022-12-23T17:29:44.817Z,13.77
2022-12-23T17:32:15.130Z,14.80
2022-12-23T17:34:41.630Z,16.85
2022-12-23T17:37:19.541Z,16.25
2022-12-23T17:39:46.932Z,15.95
2022-12-23T17:42:25.622Z,16.98
2022-12-23T17:44:52.743Z,16.88
2022-12-23T17:47:21.356Z,15.00
2022-12-23T17:49:49.508Z,14.82
2022-12-23T17:52:18.070Z,11.15
2022-12-23T17:54:46.230Z,10.27
2022-12-23T17:57:23.253Z,8.95
2022-12-23T17:59:50.983Z,13.98
2022-12-23T18:02:20.514Z,9.23
2022-12-23T18:04:46.988Z,11.82
2022-12-23T18:07:13.479Z,7.90
2022-12-23T18:09:40.002Z,8.07
2022-12-23T18:12:06.923Z,10.27
2022-12-23T18:14:33.384Z,11.70
2022-12-23T18:16:59.974Z,9.13
2022-12-23T18:19:28.683Z,11.73
2022-12-23T18:21:55.195Z,8.27
2022-12-23T18:24:22.146Z,13.50
2022-12-23T18:26:48.732Z,14.85
2022-12-23T18:29:15.190Z,10.73
2022-12-23T18:31:50.626Z,11.07
2022-12-23T18:34:18.481Z,16.42
2022-12-23T18:36:45.597Z,14.02
2022-12-23T18:39:12.185Z,13.85
2022-12-23T18:41:38.640Z,15.20
2022-12-23T18:44:05.223Z,16.70
2022-12-23T18:46:31.725Z,18.80
2022-12-23T18:48:58.314Z,18.73
2022-12-23T18:51:24.811Z,13.57
2022-12-23T18:53:51.324Z,18.42
2022-12-23T18:56:20.884Z,17.20
2022-12-23T18:58:47.603Z,12.10
2022-12-23T19:01:15.221Z,16.80
2022-12-23T19:03:43.406Z,8.90
2022-12-23T19:06:12.691Z,14.70
2022-12-23T19:08:39.651Z,16.80
2022-12-23T19:11:20.254Z,14.65
2022-12-23T19:13:47.169Z,15.82
2022-12-23T19:16:15.933Z,15.13
2022-12-23T19:18:42.669Z,12.88
2022-12-23T19:21:09.489Z,13.75
2022-12-23T19:23:36.334Z,18.33
2022-12-23T19:26:06.270Z,19.67
2022-12-23T19:28:36.784Z,17.20
2022-12-23T19:31:16.152Z,25.95
2022-12-23T19:33:45.001Z,16.27
2022-12-23T19:36:17.169Z,19.75
2022-12-23T19:38:43.671Z,19.98
2022-12-23T19:41:10.677Z,24.92
2022-12-23T19:43:38.401Z,17.05
2022-12-23T19:46:07.535Z,22.55
2022-12-23T19:48:34.173Z,21.02
2022-12-23T19:51:11.973Z,23.55
2022-12-23T19:53:39.780Z,23.83
2022-12-23T19:56:07.605Z,20.48
2022-12-23T19:58:38.380Z,17.02
2022-12-23T20:01:09.179Z,24.45
2022-12-23T20:06:04.017Z,27.73
2022-12-23T20:08:30.552Z,23.20
2022-12-23T20:11:04.160Z,24.13
2022-12-23T20:13:30.729Z,19.85
2022-12-23T20:15:57.337Z,20.73
2022-12-23T20:18:23.886Z,17.00
2022-12-23T20:20:50.384Z,28.50
2022-12-23T20:23:17.179Z,22.45
2022-12-23T20:25:43.662Z,19.50
2022-12-23T20:28:11.033Z,20.67
2022-12-23T20:30:37.616Z,24.98
2022-12-23T20:33:04.215Z,21.10
2022-12-23T20:35:31.145Z,18.48
2022-12-23T20:37:57.569Z,21.13
2022-12-23T20:40:24.059Z,22.25
2022-12-23T20:42:50.627Z,26.83
2022-12-23T20:45:17.179Z,22.98
2022-12-23T20:47:43.631Z,27.80
2022-12-23T20:50:10.151Z,17.25
2022-12-23T20:52:36.606Z,20.60
2022-12-23T20:55:03.437Z,21.63
2022-12-23T20:57:31.597Z,18.80
2022-12-23T20:59:59.312Z,22.65
2022-12-23T21:02:25.988Z,15.57
2022-12-23T21:04:52.533Z,24.05
2022-12-23T21:07:18.978Z,18.70
2022-12-23T21:09:45.398Z,20.95
2022-12-23T21:12:12.024Z,18.52
2022-12-23T21:14:38.477Z,14.43
2022-12-23T21:17:05.015Z,17.17
2022-12-23T21:19:31.539Z,19.98
2022-12-23T21:21:58.184Z,22.25
2022-12-23T21:24:24.814Z,17.73
2022-12-23T21:26:56.357Z,18.70
2022-12-23T21:29:27.403Z,16.70
2022-12-23T21:31:55.097Z,23.50
2022-12-23T21:34:21.945Z,20.33
2022-12-23T21:36:48.462Z,18.02
2022-12-23T21:39:16.168Z,19.58
2022-12-23T21:41:43.018Z,21.73
2022-12-23T21:44:10.576Z,18.02
2022-12-23T21:46:37.114Z,19.05
2022-12-23T21:49:03.894Z,22.95
2022-12-23T21:51:39.684Z,26.65
2022-12-23T23:20:42.480Z,17.40
2022-12-23T23:23:09.231Z,18.15
2022-12-23T23:25:35.774Z,13.57
2022-12-23T23:28:02.460Z,14.30
2022-12-23T23:30:29.040Z,16.15
2022-12-23T23:32:55.655Z,19.25
2022-12-23T23:35:22.127Z,13.07
2022-12-23T23:37:48.642Z,18.38
2022-12-23T23:40:15.378Z,16.67
2022-12-23T23:42:41.819Z,18.45
2022-12-23T23:45:08.628Z,15.68
2022-12-23T23:47:35.099Z,17.25
2022-12-23T23:50:02.356Z,17.48
2022-12-23T23:52:29.201Z,13.52
2022-12-23T23:54:55.895Z,18.95
2022-12-23T23:57:22.848Z,14.85
2022-12-23T23:59:49.500Z,15.32
